sensor_id;sensor_type;location;lat;lon;timestamp;P1;durP1;ratioP1;P2;durP2;ratioP2
20318;SDS011;10317;47.254;11.314;2023-01-31T00:07:09;0.90;;;0.90;;
20318;SDS011;10317;47.254;11.314;2023-01-31T00:09:34;0.82;;;0.82;;
20318;SDS011;10317;47.254;11.314;2023-01-31T00:12:00;1.20;;;1.10;;
20318;SDS011;10317;47.254;11.314;2023-01-31T00:14:26;1.10;;;1.10;;
20318;SDS011;10317;47.254;11.314;2023-01-31T00:16:51;1.95;;;0.88;;
20318;SDS011;10317;47.254;11.314;2023-01-31T00:19:17;1.10;;;1.00;;
20318;SDS011;10317;47.254;11.314;2023-01-31T00:21:43;0.90;;;0.90;;
20318;SDS011;10317;47.254;11.314;2023-01-31T00:24:11;0.90;;;0.90;;
20318;SDS011;10317;47.254;11.314;2023-01-31T00:26:37;2.13;;;1.23;;
20318;SDS011;10317;47.254;11.314;2023-01-31T00:29:04;3.08;;;1.63;;
20318;SDS011;10317;47.254;11.314;2023-01-31T00:31:31;1.48;;;1.48;;
20318;SDS011;10317;47.254;11.314;2023-01-31T00:33:58;3.00;;;1.77;;
20318;SDS011;10317;47.254;11.314;2023-01-31T00:36:26;1.70;;;1.30;;
20318;SDS011;10317;47.254;11.314;2023-01-31T00:38:57;2.15;;;2.05;;
20318;SDS011;10317;47.254;11.314;2023-01-31T00:41:24;1.58;;;1.48;;
20318;SDS011;10317;47.254;11.314;2023-01-31T00:43:51;1.52;;;1.42;;
20318;SDS011;10317;47.254;11.314;2023-01-31T00:46:16;1.35;;;1.35;;
20318;SDS011;10317;47.254;11.314;2023-01-31T00:48:44;2.42;;;1.90;;
20318;SDS011;10317;47.254;11.314;2023-01-31T00:51:10;4.15;;;1.30;;
20318;SDS011;10317;47.254;11.314;2023-01-31T00:53:36;2.47;;;1.83;;
20318;SDS011;10317;47.254;11.314;2023-01-31T00:56:06;3.03;;;2.05;;
20318;SDS011;10317;47.254;11.314;2023-01-31T00:58:37;2.05;;;1.73;;
20318;SDS011;10317;47.254;11.314;2023-01-31T01:01:09;1.60;;;1.60;;
20318;SDS011;10317;47.254;11.314;2023-01-31T01:03:38;2.10;;;1.50;;
20318;SDS011;10317;47.254;11.314;2023-01-31T01:06:05;3.28;;;1.60;;
20318;SDS011;10317;47.254;11.314;2023-01-31T01:08:32;2.13;;;1.90;;
20318;SDS011;10317;47.254;11.314;2023-01-31T01:11:06;1.70;;;1.60;;
20318;SDS011;10317;47.254;11.314;2023-01-31T01:13:35;3.22;;;1.98;;
20318;SDS011;10317;47.254;11.314;2023-01-31T01:16:09;3.83;;;2.03;;
20318;SDS011;10317;47.254;11.314;2023-01-31T01:18:36;3.08;;;2.33;;
20318;SDS011;10317;47.254;11.314;2023-01-31T01:21:06;2.22;;;2.13;;
20318;SDS011;10317;47.254;11.314;2023-01-31T01:23:33;3.22;;;2.00;;
20318;SDS011;10317;47.254;11.314;2023-01-31T01:25:59;2.10;;;1.90;;
20318;SDS011;10317;47.254;11.314;2023-01-31T01:28:25;2.08;;;1.90;;
20318;SDS011;10317;47.254;11.314;2023-01-31T01:30:51;2.05;;;1.90;;
20318;SDS011;10317;47.254;11.314;2023-01-31T01:33:17;3.90;;;1.80;;
20318;SDS011;10317;47.254;11.314;2023-01-31T01:35:42;4.28;;;2.40;;
20318;SDS011;10317;47.254;11.314;2023-01-31T01:38:08;2.53;;;2.20;;
20318;SDS011;10317;47.254;11.314;2023-01-31T01:40:35;4.72;;;1.90;;
20318;SDS011;10317;47.254;11.314;2023-01-31T01:43:01;2.08;;;1.73;;
20318;SDS011;10317;47.254;11.314;2023-01-31T01:45:28;1.67;;;1.58;;
20318;SDS011;10317;47.254;11.314;2023-01-31T01:47:58;3.80;;;1.77;;
20318;SDS011;10317;47.254;11.314;2023-01-31T01:50:38;3.20;;;1.98;;
20318;SDS011;10317;47.254;11.314;2023-01-31T01:53:09;2.35;;;1.80;;
20318;SDS011;10317;47.254;11.314;2023-01-31T01:55:49;2.20;;;1.73;;
20318;SDS011;10317;47.254;11.314;2023-01-31T01:58:24;3.47;;;1.90;;
20318;SDS011;10317;47.254;11.314;2023-01-31T02:00:55;5.80;;;2.35;;
20318;SDS011;10317;47.254;11.314;2023-01-31T02:03:20;2.50;;;1.88;;
20318;SDS011;10317;47.254;11.314;2023-01-31T02:05:54;3.72;;;2.50;;
20318;SDS011;10317;47.254;11.314;2023-01-31T02:08:23;4.32;;;2.60;;
20318;SDS011;10317;47.254;11.314;2023-01-31T02:10:55;6.32;;;2.80;;
20318;SDS011;10317;47.254;11.314;2023-01-31T02:13:28;4.40;;;2.30;;
20318;SDS011;10317;47.254;11.314;2023-01-31T02:15:55;2.35;;;2.20;;
20318;SDS011;10317;47.254;11.314;2023-01-31T02:18:22;2.72;;;2.42;;
20318;SDS011;10317;47.254;11.314;2023-01-31T02:26:40;5.65;;;2.50;;
20318;SDS011;10317;47.254;11.314;2023-01-31T02:35:51;3.97;;;1.90;;
20318;SDS011;10317;47.254;11.314;2023-01-31T02:37:56;2.42;;;1.95;;
20318;SDS011;10317;47.254;11.314;2023-01-31T02:46:27;2.20;;;2.08;;
20318;SDS011;10317;47.254;11.314;2023-01-31T02:49:27;2.20;;;1.90;;
20318;SDS011;10317;47.254;11.314;2023-01-31T02:54:41;2.03;;;1.92;;
20318;SDS011;10317;47.254;11.314;2023-01-31T02:57:30;3.58;;;1.90;;
20318;SDS011;10317;47.254;11.314;2023-01-31T02:59:56;1.77;;;1.67;;
20318;SDS011;10317;47.254;11.314;2023-01-31T03:02:23;1.95;;;1.60;;
20318;SDS011;10317;47.254;11.314;2023-01-31T03:04:50;2.63;;;2.53;;
20318;SDS011;10317;47.254;11.314;2023-01-31T03:07:16;3.40;;;1.88;;
20318;SDS011;10317;47.254;11.314;2023-01-31T03:12:50;1.80;;;1.65;;
20318;SDS011;10317;47.254;11.314;2023-01-31T03:15:30;1.80;;;1.70;;
20318;SDS011;10317;47.254;11.314;2023-01-31T03:18:27;2.00;;;1.80;;
20318;SDS011;10317;47.254;11.314;2023-01-31T03:21:01;4.30;;;1.90;;
20318;SDS011;10317;47.254;11.314;2023-01-31T03:23:44;3.20;;;1.90;;
20318;SDS011;10317;47.254;11.314;2023-01-31T03:26:14;2.25;;;1.80;;
20318;SDS011;10317;47.254;11.314;2023-01-31T03:28:44;4.95;;;1.60;;
20318;SDS011;10317;47.254;11.314;2023-01-31T03:34:15;1.40;;;1.40;;
20318;SDS011;10317;47.254;11.314;2023-01-31T03:36:47;2.05;;;1.63;;
20318;SDS011;10317;47.254;11.314;2023-01-31T03:45:14;1.63;;;1.63;;
20318;SDS011;10317;47.254;11.314;2023-01-31T03:47:47;1.65;;;1.65;;
20318;SDS011;10317;47.254;11.314;2023-01-31T03:50:48;1.60;;;1.60;;
20318;SDS011;10317;47.254;11.314;2023-01-31T03:53:13;1.27;;;1.27;;
20318;SDS011;10317;47.254;11.314;2023-01-31T03:56:01;1.92;;;1.83;;
20318;SDS011;10317;47.254;11.314;2023-01-31T03:58:42;1.50;;;1.50;;
20318;SDS011;10317;47.254;11.314;2023-01-31T04:01:11;1.50;;;1.40;;
20318;SDS011;10317;47.254;11.314;2023-01-31T04:03:46;1.95;;;1.85;;
20318;SDS011;10317;47.254;11.314;2023-01-31T04:06:17;1.80;;;1.70;;
20318;SDS011;10317;47.254;11.314;2023-01-31T04:08:42;5.10;;;1.60;;
20318;SDS011;10317;47.254;11.314;2023-01-31T04:11:09;1.88;;;1.77;;
20318;SDS011;10317;47.254;11.314;2023-01-31T04:13:37;2.50;;;1.70;;
20318;SDS011;10317;47.254;11.314;2023-01-31T04:16:04;1.70;;;1.60;;
20318;SDS011;10317;47.254;11.314;2023-01-31T04:18:30;1.70;;;1.60;;
20318;SDS011;10317;47.254;11.314;2023-01-31T04:20:55;1.67;;;1.50;;
20318;SDS011;10317;47.254;11.314;2023-01-31T04:23:21;1.50;;;1.40;;
20318;SDS011;10317;47.254;11.314;2023-01-31T04:25:48;2.65;;;1.50;;
20318;SDS011;10317;47.254;11.314;2023-01-31T04:28:16;1.70;;;1.60;;
20318;SDS011;10317;47.254;11.314;2023-01-31T04:30:42;1.80;;;1.70;;
20318;SDS011;10317;47.254;11.314;2023-01-31T04:33:07;1.90;;;1.77;;
20318;SDS011;10317;47.254;11.314;2023-01-31T04:35:33;3.72;;;1.55;;
20318;SDS011;10317;47.254;11.314;2023-01-31T04:37:59;1.55;;;1.45;;
20318;SDS011;10317;47.254;11.314;2023-01-31T04:40:24;1.80;;;1.70;;
20318;SDS011;10317;47.254;11.314;2023-01-31T04:42:50;2.40;;;1.70;;
20318;SDS011;10317;47.254;11.314;2023-01-31T04:45:16;2.50;;;1.75;;
20318;SDS011;10317;47.254;11.314;2023-01-31T04:47:42;4.68;;;1.95;;
20318;SDS011;10317;47.254;11.314;2023-01-31T04:50:07;6.78;;;2.10;;
20318;SDS011;10317;47.254;11.314;2023-01-31T04:52:33;3.60;;;1.80;;
20318;SDS011;10317;47.254;11.314;2023-01-31T04:54:59;1.90;;;1.80;;
20318;SDS011;10317;47.254;11.314;2023-01-31T04:57:25;1.80;;;1.70;;
20318;SDS011;10317;47.254;11.314;2023-01-31T04:59:51;3.80;;;1.50;;
20318;SDS011;10317;47.254;11.314;2023-01-31T05:02:16;2.20;;;2.10;;
20318;SDS011;10317;47.254;11.314;2023-01-31T05:04:42;2.30;;;2.10;;
20318;SDS011;10317;47.254;11.314;2023-01-31T05:07:08;2.22;;;2.03;;
20318;SDS011;10317;47.254;11.314;2023-01-31T05:09:34;1.52;;;1.52;;
20318;SDS011;10317;47.254;11.314;2023-01-31T05:12:00;2.17;;;1.95;;
20318;SDS011;10317;47.254;11.314;2023-01-31T05:14:25;2.25;;;2.05;;
20318;SDS011;10317;47.254;11.314;2023-01-31T05:16:52;2.35;;;2.00;;
20318;SDS011;10317;47.254;11.314;2023-01-31T05:19:17;3.90;;;2.20;;
20318;SDS011;10317;47.254;11.314;2023-01-31T05:21:43;4.20;;;2.70;;
20318;SDS011;10317;47.254;11.314;2023-01-31T05:24:24;2.60;;;2.40;;
20318;SDS011;10317;47.254;11.314;2023-01-31T05:26:53;2.50;;;2.30;;
20318;SDS011;10317;47.254;11.314;2023-01-31T05:29:26;9.30;;;5.43;;
20318;SDS011;10317;47.254;11.314;2023-01-31T05:31:54;16.15;;;8.13;;
20318;SDS011;10317;47.254;11.314;2023-01-31T05:34:21;11.65;;;7.18;;
20318;SDS011;10317;47.254;11.314;2023-01-31T05:36:49;7.18;;;4.72;;
20318;SDS011;10317;47.254;11.314;2023-01-31T05:39:15;4.97;;;3.00;;
20318;SDS011;10317;47.254;11.314;2023-01-31T05:41:41;4.53;;;3.25;;
20318;SDS011;10317;47.254;11.314;2023-01-31T05:44:07;4.43;;;3.00;;
20318;SDS011;10317;47.254;11.314;2023-01-31T05:46:33;3.00;;;2.33;;
20318;SDS011;10317;47.254;11.314;2023-01-31T05:48:59;7.38;;;2.80;;
20318;SDS011;10317;47.254;11.314;2023-01-31T05:51:24;5.28;;;4.55;;
20318;SDS011;10317;47.254;11.314;2023-01-31T05:53:50;4.78;;;3.50;;
20318;SDS011;10317;47.254;11.314;2023-01-31T05:56:16;5.50;;;5.07;;
20318;SDS011;10317;47.254;11.314;2023-01-31T05:58:42;5.13;;;3.80;;
20318;SDS011;10317;47.254;11.314;2023-01-31T06:01:08;6.68;;;4.10;;
20318;SDS011;10317;47.254;11.314;2023-01-31T06:03:33;5.68;;;3.90;;
20318;SDS011;10317;47.254;11.314;2023-01-31T06:05:59;3.53;;;3.10;;
20318;SDS011;10317;47.254;11.314;2023-01-31T06:08:25;6.20;;;3.50;;
20318;SDS011;10317;47.254;11.314;2023-01-31T06:10:50;4.13;;;3.72;;
20318;SDS011;10317;47.254;11.314;2023-01-31T06:13:16;7.80;;;3.95;;
20318;SDS011;10317;47.254;11.314;2023-01-31T06:15:42;5.47;;;3.97;;
20318;SDS011;10317;47.254;11.314;2023-01-31T06:18:08;6.75;;;3.90;;
20318;SDS011;10317;47.254;11.314;2023-01-31T06:20:35;4.13;;;3.42;;
20318;SDS011;10317;47.254;11.314;2023-01-31T06:23:02;8.25;;;3.13;;
20318;SDS011;10317;47.254;11.314;2023-01-31T06:25:29;2.97;;;2.70;;
20318;SDS011;10317;47.254;11.314;2023-01-31T06:27:55;4.85;;;3.10;;
20318;SDS011;10317;47.254;11.314;2023-01-31T06:30:21;7.07;;;3.80;;
20318;SDS011;10317;47.254;11.314;2023-01-31T06:32:47;5.57;;;3.90;;
20318;SDS011;10317;47.254;11.314;2023-01-31T06:35:12;4.47;;;3.22;;
20318;SDS011;10317;47.254;11.314;2023-01-31T06:37:39;3.40;;;3.10;;
20318;SDS011;10317;47.254;11.314;2023-01-31T06:40:05;5.50;;;3.40;;
20318;SDS011;10317;47.254;11.314;2023-01-31T06:42:30;3.78;;;2.85;;
20318;SDS011;10317;47.254;11.314;2023-01-31T06:44:56;5.63;;;3.67;;
20318;SDS011;10317;47.254;11.314;2023-01-31T06:47:22;4.70;;;3.95;;
20318;SDS011;10317;47.254;11.314;2023-01-31T06:49:48;5.45;;;4.38;;
20318;SDS011;10317;47.254;11.314;2023-01-31T06:52:13;6.25;;;3.20;;
20318;SDS011;10317;47.254;11.314;2023-01-31T06:54:39;3.22;;;2.92;;
20318;SDS011;10317;47.254;11.314;2023-01-31T06:57:05;8.23;;;4.00;;
20318;SDS011;10317;47.254;11.314;2023-01-31T06:59:34;6.18;;;3.75;;
20318;SDS011;10317;47.254;11.314;2023-01-31T07:02:00;5.68;;;4.05;;
20318;SDS011;10317;47.254;11.314;2023-01-31T07:04:25;5.63;;;3.47;;
20318;SDS011;10317;47.254;11.314;2023-01-31T07:06:51;4.00;;;2.80;;
20318;SDS011;10317;47.254;11.314;2023-01-31T07:09:17;3.20;;;2.92;;
20318;SDS011;10317;47.254;11.314;2023-01-31T07:11:42;5.97;;;3.28;;
20318;SDS011;10317;47.254;11.314;2023-01-31T07:14:08;4.55;;;3.53;;
20318;SDS011;10317;47.254;11.314;2023-01-31T07:16:34;3.30;;;2.72;;
20318;SDS011;10317;47.254;11.314;2023-01-31T07:19:02;4.75;;;2.63;;
20318;SDS011;10317;47.254;11.314;2023-01-31T07:21:28;5.15;;;2.97;;
20318;SDS011;10317;47.254;11.314;2023-01-31T07:23:54;4.72;;;3.63;;
20318;SDS011;10317;47.254;11.314;2023-01-31T07:26:20;5.00;;;4.00;;
20318;SDS011;10317;47.254;11.314;2023-01-31T07:28:45;6.38;;;4.05;;
20318;SDS011;10317;47.254;11.314;2023-01-31T07:31:12;4.72;;;4.00;;
20318;SDS011;10317;47.254;11.314;2023-01-31T07:33:39;5.15;;;3.97;;
20318;SDS011;10317;47.254;11.314;2023-01-31T07:36:05;4.95;;;3.60;;
20318;SDS011;10317;47.254;11.314;2023-01-31T07:38:32;4.35;;;3.95;;
20318;SDS011;10317;47.254;11.314;2023-01-31T07:40:58;4.25;;;3.33;;
20318;SDS011;10317;47.254;11.314;2023-01-31T07:43:28;4.40;;;2.80;;
20318;SDS011;10317;47.254;11.314;2023-01-31T07:45:55;4.97;;;3.67;;
20318;SDS011;10317;47.254;11.314;2023-01-31T07:48:21;5.25;;;3.15;;
20318;SDS011;10317;47.254;11.314;2023-01-31T07:50:50;3.28;;;2.90;;
20318;SDS011;10317;47.254;11.314;2023-01-31T07:53:17;2.85;;;2.63;;
20318;SDS011;10317;47.254;11.314;2023-01-31T07:55:43;3.03;;;2.83;;
20318;SDS011;10317;47.254;11.314;2023-01-31T07:58:13;6.28;;;3.92;;
20318;SDS011;10317;47.254;11.314;2023-01-31T08:00:39;5.38;;;3.97;;
20318;SDS011;10317;47.254;11.314;2023-01-31T08:03:26;6.18;;;4.03;;
20318;SDS011;10317;47.254;11.314;2023-01-31T08:05:56;4.55;;;3.53;;
20318;SDS011;10317;47.254;11.314;2023-01-31T08:08:22;4.60;;;4.20;;
20318;SDS011;10317;47.254;11.314;2023-01-31T08:10:48;4.97;;;3.95;;
20318;SDS011;10317;47.254;11.314;2023-01-31T08:13:13;8.65;;;4.57;;
20318;SDS011;10317;47.254;11.314;2023-01-31T08:15:39;5.50;;;4.10;;
20318;SDS011;10317;47.254;11.314;2023-01-31T08:18:05;5.75;;;4.45;;
20318;SDS011;10317;47.254;11.314;2023-01-31T08:20:30;6.53;;;4.55;;
20318;SDS011;10317;47.254;11.314;2023-01-31T08:22:56;4.20;;;3.70;;
20318;SDS011;10317;47.254;11.314;2023-01-31T08:25:24;4.30;;;3.85;;
20318;SDS011;10317;47.254;11.314;2023-01-31T08:27:52;4.07;;;3.40;;
20318;SDS011;10317;47.254;11.314;2023-01-31T08:30:18;5.88;;;4.15;;
20318;SDS011;10317;47.254;11.314;2023-01-31T08:32:44;6.70;;;4.20;;
20318;SDS011;10317;47.254;11.314;2023-01-31T08:35:10;5.38;;;4.30;;
20318;SDS011;10317;47.254;11.314;2023-01-31T08:37:35;6.28;;;4.35;;
20318;SDS011;10317;47.254;11.314;2023-01-31T08:40:01;8.02;;;4.28;;
20318;SDS011;10317;47.254;11.314;2023-01-31T08:42:27;5.13;;;4.63;;
20318;SDS011;10317;47.254;11.314;2023-01-31T08:44:53;7.85;;;4.40;;
20318;SDS011;10317;47.254;11.314;2023-01-31T08:47:19;6.05;;;4.45;;
20318;SDS011;10317;47.254;11.314;2023-01-31T08:49:44;4.43;;;4.03;;
20318;SDS011;10317;47.254;11.314;2023-01-31T08:52:10;5.93;;;4.00;;
20318;SDS011;10317;47.254;11.314;2023-01-31T08:54:36;5.35;;;4.07;;
20318;SDS011;10317;47.254;11.314;2023-01-31T08:57:01;9.05;;;4.15;;
20318;SDS011;10317;47.254;11.314;2023-01-31T08:59:27;5.75;;;4.05;;
20318;SDS011;10317;47.254;11.314;2023-01-31T09:01:53;5.57;;;3.83;;
20318;SDS011;10317;47.254;11.314;2023-01-31T09:04:19;6.25;;;4.10;;
20318;SDS011;10317;47.254;11.314;2023-01-31T09:06:44;6.60;;;3.85;;
20318;SDS011;10317;47.254;11.314;2023-01-31T09:09:10;5.43;;;4.53;;
20318;SDS011;10317;47.254;11.314;2023-01-31T09:11:36;8.15;;;4.63;;
20318;SDS011;10317;47.254;11.314;2023-01-31T09:14:01;5.32;;;4.32;;
20318;SDS011;10317;47.254;11.314;2023-01-31T09:16:27;4.95;;;4.38;;
20318;SDS011;10317;47.254;11.314;2023-01-31T09:18:53;5.50;;;4.28;;
20318;SDS011;10317;47.254;11.314;2023-01-31T09:21:20;5.57;;;4.95;;
20318;SDS011;10317;47.254;11.314;2023-01-31T09:23:47;6.53;;;4.72;;
20318;SDS011;10317;47.254;11.314;2023-01-31T09:26:18;5.60;;;4.93;;
20318;SDS011;10317;47.254;11.314;2023-01-31T09:28:44;12.13;;;6.70;;
20318;SDS011;10317;47.254;11.314;2023-01-31T09:31:11;8.40;;;5.03;;
20318;SDS011;10317;47.254;11.314;2023-01-31T09:33:38;6.15;;;4.70;;
20318;SDS011;10317;47.254;11.314;2023-01-31T09:36:05;5.68;;;4.68;;
20318;SDS011;10317;47.254;11.314;2023-01-31T09:38:53;7.07;;;5.20;;
20318;SDS011;10317;47.254;11.314;2023-01-31T09:41:28;6.65;;;5.45;;
20318;SDS011;10317;47.254;11.314;2023-01-31T09:44:24;7.45;;;5.68;;
20318;SDS011;10317;47.254;11.314;2023-01-31T09:46:55;7.25;;;5.45;;
20318;SDS011;10317;47.254;11.314;2023-01-31T09:49:40;7.00;;;5.10;;
20318;SDS011;10317;47.254;11.314;2023-01-31T09:52:16;8.45;;;5.03;;
20318;SDS011;10317;47.254;11.314;2023-01-31T09:54:43;6.18;;;5.20;;
20318;SDS011;10317;47.254;11.314;2023-01-31T10:00:02;4.55;;;4.10;;
20318;SDS011;10317;47.254;11.314;2023-01-31T10:05:51;4.75;;;4.30;;
20318;SDS011;10317;47.254;11.314;2023-01-31T10:11:53;6.05;;;4.25;;
20318;SDS011;10317;47.254;11.314;2023-01-31T10:14:42;5.70;;;4.10;;
20318;SDS011;10317;47.254;11.314;2023-01-31T10:17:30;4.75;;;3.95;;
20318;SDS011;10317;47.254;11.314;2023-01-31T10:20:17;3.42;;;3.13;;
20318;SDS011;10317;47.254;11.314;2023-01-31T10:23:00;6.35;;;3.83;;
20318;SDS011;10317;47.254;11.314;2023-01-31T10:25:47;3.58;;;2.67;;
20318;SDS011;10317;47.254;11.314;2023-01-31T10:36:50;3.90;;;3.60;;
20318;SDS011;10317;47.254;11.314;2023-01-31T10:39:17;3.85;;;3.15;;
20318;SDS011;10317;47.254;11.314;2023-01-31T10:44:33;5.43;;;3.10;;
20318;SDS011;10317;47.254;11.314;2023-01-31T10:47:13;4.60;;;3.10;;
20318;SDS011;10317;47.254;11.314;2023-01-31T10:49:43;3.63;;;3.15;;
20318;SDS011;10317;47.254;11.314;2023-01-31T10:58:17;3.78;;;3.20;;
20318;SDS011;10317;47.254;11.314;2023-01-31T11:00:46;3.00;;;2.80;;
20318;SDS011;10317;47.254;11.314;2023-01-31T11:03:12;4.97;;;2.85;;
20318;SDS011;10317;47.254;11.314;2023-01-31T11:05:44;4.10;;;2.80;;
20318;SDS011;10317;47.254;11.314;2023-01-31T11:08:21;3.97;;;2.83;;
20318;SDS011;10317;47.254;11.314;2023-01-31T11:10:53;5.68;;;2.83;;
20318;SDS011;10317;47.254;11.314;2023-01-31T11:13:21;3.13;;;2.30;;
20318;SDS011;10317;47.254;11.314;2023-01-31T11:15:47;2.20;;;2.10;;
20318;SDS011;10317;47.254;11.314;2023-01-31T11:18:23;4.50;;;3.22;;
20318;SDS011;10317;47.254;11.314;2023-01-31T11:20:53;2.90;;;2.22;;
20318;SDS011;10317;47.254;11.314;2023-01-31T11:23:22;2.30;;;2.10;;
20318;SDS011;10317;47.254;11.314;2023-01-31T11:25:52;4.30;;;2.72;;
20318;SDS011;10317;47.254;11.314;2023-01-31T11:28:35;3.67;;;2.65;;
20318;SDS011;10317;47.254;11.314;2023-01-31T11:31:04;2.47;;;2.20;;
20318;SDS011;10317;47.254;11.314;2023-01-31T11:33:44;4.10;;;2.50;;
20318;SDS011;10317;47.254;11.314;2023-01-31T11:36:20;2.85;;;2.67;;
20318;SDS011;10317;47.254;11.314;2023-01-31T11:38:50;3.25;;;2.42;;
20318;SDS011;10317;47.254;11.314;2023-01-31T11:41:34;5.05;;;3.20;;
20318;SDS011;10317;47.254;11.314;2023-01-31T11:44:05;3.30;;;3.05;;
20318;SDS011;10317;47.254;11.314;2023-01-31T11:46:31;3.88;;;2.85;;
20318;SDS011;10317;47.254;11.314;2023-01-31T11:49:09;4.07;;;2.80;;
20318;SDS011;10317;47.254;11.314;2023-01-31T11:51:54;2.97;;;2.65;;
20318;SDS011;10317;47.254;11.314;2023-01-31T11:54:25;3.28;;;2.53;;
20318;SDS011;10317;47.254;11.314;2023-01-31T11:56:55;3.40;;;2.47;;
20318;SDS011;10317;47.254;11.314;2023-01-31T11:59:23;2.85;;;2.65;;
20318;SDS011;10317;47.254;11.314;2023-01-31T12:01:53;3.35;;;2.17;;
20318;SDS011;10317;47.254;11.314;2023-01-31T12:04:21;2.60;;;2.20;;
20318;SDS011;10317;47.254;11.314;2023-01-31T12:07:04;3.03;;;2.72;;
20318;SDS011;10317;47.254;11.314;2023-01-31T12:09:44;2.85;;;2.55;;
20318;SDS011;10317;47.254;11.314;2023-01-31T12:12:23;2.33;;;2.13;;
20318;SDS011;10317;47.254;11.314;2023-01-31T12:15:05;2.95;;;2.20;;
20318;SDS011;10317;47.254;11.314;2023-01-31T12:17:43;8.90;;;3.83;;
20318;SDS011;10317;47.254;11.314;2023-01-31T12:41:52;6.97;;;3.97;;
20318;SDS011;10317;47.254;11.314;2023-01-31T12:45:00;9.57;;;5.00;;
20318;SDS011;10317;47.254;11.314;2023-01-31T12:47:49;11.38;;;5.82;;
20318;SDS011;10317;47.254;11.314;2023-01-31T12:50:42;4.53;;;4.05;;
20318;SDS011;10317;47.254;11.314;2023-01-31T12:58:58;8.10;;;4.28;;
20318;SDS011;10317;47.254;11.314;2023-01-31T13:07:04;9.60;;;4.68;;
20318;SDS011;10317;47.254;11.314;2023-01-31T13:09:52;8.23;;;4.22;;
20318;SDS011;10317;47.254;11.314;2023-01-31T13:12:24;12.27;;;4.80;;
20318;SDS011;10317;47.254;11.314;2023-01-31T13:17:22;7.60;;;4.63;;
20318;SDS011;10317;47.254;11.314;2023-01-31T13:22:28;9.45;;;4.47;;
20318;SDS011;10317;47.254;11.314;2023-01-31T13:25:20;9.70;;;4.10;;
20318;SDS011;10317;47.254;11.314;2023-01-31T13:27:57;10.07;;;4.70;;
20318;SDS011;10317;47.254;11.314;2023-01-31T13:33:05;10.52;;;4.25;;
20318;SDS011;10317;47.254;11.314;2023-01-31T13:35:45;6.75;;;4.00;;
20318;SDS011;10317;47.254;11.314;2023-01-31T13:38:46;15.98;;;4.00;;
20318;SDS011;10317;47.254;11.314;2023-01-31T13:41:21;8.73;;;4.22;;
20318;SDS011;10317;47.254;11.314;2023-01-31T13:43:58;11.50;;;4.57;;
20318;SDS011;10317;47.254;11.314;2023-01-31T13:46:31;10.57;;;4.45;;
20318;SDS011;10317;47.254;11.314;2023-01-31T13:49:05;8.55;;;4.05;;
20318;SDS011;10317;47.254;11.314;2023-01-31T13:51:40;6.90;;;3.88;;
20318;SDS011;10317;47.254;11.314;2023-01-31T13:54:15;10.10;;;3.90;;
20318;SDS011;10317;47.254;11.314;2023-01-31T13:56:55;9.50;;;4.25;;
20318;SDS011;10317;47.254;11.314;2023-01-31T13:59:24;14.50;;;4.45;;
20318;SDS011;10317;47.254;11.314;2023-01-31T14:01:58;5.20;;;3.75;;
20318;SDS011;10317;47.254;11.314;2023-01-31T14:04:30;8.23;;;4.45;;
20318;SDS011;10317;47.254;11.314;2023-01-31T14:09:30;5.20;;;2.72;;
20318;SDS011;10317;47.254;11.314;2023-01-31T14:11:58;5.82;;;2.97;;
20318;SDS011;10317;47.254;11.314;2023-01-31T14:14:38;4.35;;;3.13;;
20318;SDS011;10317;47.254;11.314;2023-01-31T14:46:38;8.32;;;2.92;;
20318;SDS011;10317;47.254;11.314;2023-01-31T15:00:05;3.67;;;2.50;;
20318;SDS011;10317;47.254;11.314;2023-01-31T15:05:11;4.50;;;2.40;;
20318;SDS011;10317;47.254;11.314;2023-01-31T15:07:59;4.90;;;2.28;;
20318;SDS011;10317;47.254;11.314;2023-01-31T15:13:37;3.05;;;2.50;;
20318;SDS011;10317;47.254;11.314;2023-01-31T15:16:24;2.70;;;2.50;;
20318;SDS011;10317;47.254;11.314;2023-01-31T15:21:44;2.58;;;2.38;;
20318;SDS011;10317;47.254;11.314;2023-01-31T15:26:58;3.03;;;2.15;;
20318;SDS011;10317;47.254;11.314;2023-01-31T15:29:33;5.55;;;2.17;;
20318;SDS011;10317;47.254;11.314;2023-01-31T15:32:55;3.25;;;2.50;;
20318;SDS011;10317;47.254;11.314;2023-01-31T15:37:42;2.63;;;2.42;;
20318;SDS011;10317;47.254;11.314;2023-01-31T15:40:39;3.05;;;2.83;;
20318;SDS011;10317;47.254;11.314;2023-01-31T15:43:23;2.53;;;2.33;;
20318;SDS011;10317;47.254;11.314;2023-01-31T15:45:49;3.78;;;2.63;;
20318;SDS011;10317;47.254;11.314;2023-01-31T15:48:17;4.07;;;2.58;;
20318;SDS011;10317;47.254;11.314;2023-01-31T15:50:55;7.97;;;2.70;;
20318;SDS011;10317;47.254;11.314;2023-01-31T15:53:23;2.50;;;2.30;;
20318;SDS011;10317;47.254;11.314;2023-01-31T15:55:51;3.95;;;2.40;;
20318;SDS011;10317;47.254;11.314;2023-01-31T15:58:23;2.70;;;2.40;;
20318;SDS011;10317;47.254;11.314;2023-01-31T16:00:57;3.60;;;2.22;;
20318;SDS011;10317;47.254;11.314;2023-01-31T16:03:28;3.83;;;2.45;;
20318;SDS011;10317;47.254;11.314;2023-01-31T16:05:57;5.53;;;2.25;;
20318;SDS011;10317;47.254;11.314;2023-01-31T16:08:32;3.95;;;2.30;;
20318;SDS011;10317;47.254;11.314;2023-01-31T16:11:03;3.58;;;2.60;;
20318;SDS011;10317;47.254;11.314;2023-01-31T16:16:19;2.97;;;2.10;;
20318;SDS011;10317;47.254;11.314;2023-01-31T16:18:50;2.70;;;2.50;;
20318;SDS011;10317;47.254;11.314;2023-01-31T16:25:00;4.72;;;2.50;;
20318;SDS011;10317;47.254;11.314;2023-01-31T16:27:29;3.60;;;3.05;;
20318;SDS011;10317;47.254;11.314;2023-01-31T16:30:00;3.58;;;2.70;;
20318;SDS011;10317;47.254;11.314;2023-01-31T16:32:35;3.63;;;2.83;;
20318;SDS011;10317;47.254;11.314;2023-01-31T16:35:19;3.60;;;3.03;;
20318;SDS011;10317;47.254;11.314;2023-01-31T16:38:35;3.13;;;2.83;;
20318;SDS011;10317;47.254;11.314;2023-01-31T16:40:48;6.65;;;3.47;;
20318;SDS011;10317;47.254;11.314;2023-01-31T17:45:21;6.78;;;3.42;;
20318;SDS011;10317;47.254;11.314;2023-01-31T17:47:48;9.25;;;4.88;;
20318;SDS011;10317;47.254;11.314;2023-01-31T17:50:21;11.55;;;4.57;;
20318;SDS011;10317;47.254;11.314;2023-01-31T17:52:49;8.00;;;5.15;;
20318;SDS011;10317;47.254;11.314;2023-01-31T17:55:35;12.02;;;5.10;;
20318;SDS011;10317;47.254;11.314;2023-01-31T17:58:01;12.48;;;5.63;;
20318;SDS011;10317;47.254;11.314;2023-01-31T18:00:44;12.20;;;5.20;;
20318;SDS011;10317;47.254;11.314;2023-01-31T18:03:18;9.38;;;5.03;;
20318;SDS011;10317;47.254;11.314;2023-01-31T18:05:46;6.53;;;4.30;;
20318;SDS011;10317;47.254;11.314;2023-01-31T18:08:13;5.10;;;4.00;;
20318;SDS011;10317;47.254;11.314;2023-01-31T18:10:39;7.75;;;4.78;;
20318;SDS011;10317;47.254;11.314;2023-01-31T18:13:06;4.30;;;3.90;;
20318;SDS011;10317;47.254;11.314;2023-01-31T18:18:35;7.05;;;3.80;;
20318;SDS011;10317;47.254;11.314;2023-01-31T18:21:01;6.40;;;4.30;;
20318;SDS011;10317;47.254;11.314;2023-01-31T18:23:29;10.63;;;3.97;;
20318;SDS011;10317;47.254;11.314;2023-01-31T18:26:08;10.70;;;4.20;;
20318;SDS011;10317;47.254;11.314;2023-01-31T18:28:35;9.57;;;3.97;;
20318;SDS011;10317;47.254;11.314;2023-01-31T18:31:05;6.95;;;4.43;;
20318;SDS011;10317;47.254;11.314;2023-01-31T18:33:34;6.88;;;4.47;;
20318;SDS011;10317;47.254;11.314;2023-01-31T18:36:01;7.65;;;4.03;;
20318;SDS011;10317;47.254;11.314;2023-01-31T18:38:27;5.90;;;3.97;;
20318;SDS011;10317;47.254;11.314;2023-01-31T18:40:54;8.50;;;4.20;;
20318;SDS011;10317;47.254;11.314;2023-01-31T18:43:21;10.65;;;4.90;;
20318;SDS011;10317;47.254;11.314;2023-01-31T18:45:47;15.10;;;7.22;;
20318;SDS011;10317;47.254;11.314;2023-01-31T18:48:13;8.95;;;5.55;;